Time;durP1;ratioP1;P1;durP2;ratioP2;P2;SDS_P1;SDS_P2;PMS_P1;PMS_P2;Temp;Humidity;BMP_temperature;BMP_pressure;BME280_temperature;BME280_humidity;BME280_pressure;Samples;Min_cycle;Max_cycle;Signal;HPM_P1;HPM_P2
2023/08/04 00:00:00;;;;;;;;;;;21.90;70.20;;;;;;10370870;28;92617;-65
2023/08/04 00:05:03;;;;;;;;;;;21.80;70.10;;;;;;10372393;28;93789;-65
2023/08/04 00:10:04;;;;;;;;;;;21.80;70.10;;;;;;10352923;28;94489;-65
2023/08/04 00:15:07;;;;;;;;;;;21.80;70.10;;;;;;10371300;28;94342;-65
2023/08/04 00:20:10;;;;;;;;;;;21.80;70.10;;;;;;10371814;28;94432;-65
2023/08/04 00:25:12;;;;;;;;;;;21.80;70.10;;;;;;10371904;28;93708;-65
2023/08/04 00:30:14;;;;;;;;;;;21.80;70.10;;;;;;10352765;28;94553;-65
2023/08/04 00:35:16;;;;;;;;;;;21.80;70.20;;;;;;10371947;28;94462;-65
2023/08/04 00:40:18;;;;;;;;;;;21.70;70.10;;;;;;10368614;28;96956;-64
2023/08/04 00:45:19;;;;;;;;;;;21.70;70.10;;;;;;10353221;28;94595;-65
2023/08/04 00:50:21;;;;;;;;;;;21.70;70.10;;;;;;10369892;28;94572;-64
2023/08/04 00:55:23;;;;;;;;;;;21.70;70.10;;;;;;10369861;28;93473;-64
2023/08/04 01:00:25;;;;;;;;;;;21.70;70.10;;;;;;10369518;28;93521;-64
2023/08/04 01:05:31;;;;;;;;;;;21.70;70.10;;;;;;10370347;28;94591;-64
2023/08/04 01:10:41;;;;;;;;;;;21.70;70.10;;;;;;10352157;28;93450;-65
2023/08/04 01:15:43;;;;;;;;;;;21.70;70.10;;;;;;10372088;28;93690;-65
2023/08/04 01:20:45;;;;;;;;;;;21.70;70.10;;;;;;10369695;28;93432;-65
2023/08/04 01:25:47;;;;;;;;;;;21.70;70.10;;;;;;10353153;28;94235;-64
2023/08/04 01:30:50;;;;;;;;;;;21.70;70.10;;;;;;10349322;28;95920;-65
2023/08/04 01:35:53;;;;;;;;;;;21.70;70.10;;;;;;10351455;28;94509;-65
2023/08/04 01:40:54;;;;;;;;;;;21.70;70.10;;;;;;10369314;28;93203;-65
2023/08/04 01:45:56;;;;;;;;;;;21.60;70.00;;;;;;10357628;28;94482;-65
2023/08/04 01:50:58;;;;;;;;;;;21.60;70.00;;;;;;10374809;28;94472;-64
2023/08/04 01:56:00;;;;;;;;;;;21.60;70.00;;;;;;10357131;28;93471;-65
2023/08/04 02:01:02;;;;;;;;;;;21.60;70.00;;;;;;10375692;28;93435;-64
2023/08/04 02:06:04;;;;;;;;;;;21.60;70.00;;;;;;10375221;28;92776;-64
2023/08/04 02:11:06;;;;;;;;;;;21.60;70.00;;;;;;10374757;28;95662;-64
2023/08/04 02:16:07;;;;;;;;;;;21.60;70.00;;;;;;10374753;28;93902;-65
2023/08/04 02:21:11;;;;;;;;;;;21.60;70.00;;;;;;10371388;28;115156;-65
2023/08/04 02:26:13;;;;;;;;;;;21.60;70.00;;;;;;10374306;28;93564;-65
2023/08/04 02:31:15;;;;;;;;;;;21.60;69.90;;;;;;10374607;28;94399;-65
2023/08/04 02:36:17;;;;;;;;;;;21.60;70.00;;;;;;10374591;28;94827;-65
2023/08/04 02:41:18;;;;;;;;;;;21.60;69.90;;;;;;10356494;28;94471;-65
2023/08/04 02:46:22;;;;;;;;;;;21.60;69.90;;;;;;10373554;28;94405;-65
2023/08/04 02:51:25;;;;;;;;;;;21.60;69.90;;;;;;10374200;28;93347;-65
2023/08/04 02:56:26;;;;;;;;;;;21.60;69.90;;;;;;10374407;28;93487;-64
2023/08/04 03:01:28;;;;;;;;;;;21.60;69.90;;;;;;10372843;28;92870;-65
2023/08/04 03:06:30;;;;;;;;;;;21.50;69.80;;;;;;10354776;28;94164;-64
2023/08/04 03:11:32;;;;;;;;;;;21.60;69.90;;;;;;10369996;28;96525;-64
2023/08/04 03:16:34;;;;;;;;;;;21.50;69.80;;;;;;10373749;28;92924;-64
2023/08/04 03:21:38;;;;;;;;;;;21.50;69.80;;;;;;10355232;28;93553;-65
2023/08/04 03:26:39;;;;;;;;;;;21.50;69.80;;;;;;10371790;28;93425;-63
2023/08/04 03:31:42;;;;;;;;;;;21.50;69.80;;;;;;10371632;28;93521;-65
2023/08/04 03:36:44;;;;;;;;;;;21.50;69.80;;;;;;10372211;28;93384;-65
2023/08/04 03:41:46;;;;;;;;;;;21.50;69.80;;;;;;10371743;28;92526;-64
2023/08/04 03:46:48;;;;;;;;;;;21.50;69.70;;;;;;10372657;28;93703;-65
2023/08/04 03:51:50;;;;;;;;;;;21.50;69.80;;;;;;10372361;28;94542;-65
2023/08/04 03:56:51;;;;;;;;;;;21.50;69.80;;;;;;10371492;28;94351;-64
2023/08/04 04:01:53;;;;;;;;;;;21.50;69.80;;;;;;10368616;28;95833;-65
2023/08/04 04:06:55;;;;;;;;;;;21.50;69.90;;;;;;10371001;28;94390;-64
2023/08/04 04:11:57;;;;;;;;;;;21.40;69.70;;;;;;10371309;28;94406;-65
2023/08/04 04:16:59;;;;;;;;;;;21.40;69.80;;;;;;10368670;28;93780;-64
2023/08/04 04:22:01;;;;;;;;;;;21.40;69.80;;;;;;10352973;28;93390;-64
2023/08/04 04:27:03;;;;;;;;;;;21.40;69.90;;;;;;10352150;28;93550;-64
2023/08/04 04:32:05;;;;;;;;;;;21.40;69.90;;;;;;10370499;28;94028;-65
2023/08/04 04:37:07;;;;;;;;;;;21.40;69.90;;;;;;10371318;28;92180;-64
2023/08/04 04:42:09;;;;;;;;;;;21.40;69.90;;;;;;10370285;28;94634;-65
2023/08/04 04:52:32;;;;;;;;;;;21.40;69.90;;;;;;10265101;28;95772;-64
2023/08/04 04:57:39;;;;;;;;;;;21.40;69.90;;;;;;10249075;28;93508;-64
2023/08/04 05:02:41;;;;;;;;;;;21.40;69.90;;;;;;10264680;28;95140;-65
2023/08/04 05:07:43;;;;;;;;;;;21.30;69.90;;;;;;10266739;28;94836;-64
2023/08/04 05:12:44;;;;;;;;;;;21.30;69.90;;;;;;10267183;28;94106;-64
2023/08/04 05:17:46;;;;;;;;;;;21.30;69.90;;;;;;10278722;28;93440;-63
2023/08/04 05:22:49;;;;;;;;;;;21.30;69.90;;;;;;10288975;28;93687;-64
2023/08/04 05:27:51;;;;;;;;;;;21.30;69.90;;;;;;10279891;28;92823;-65
2023/08/04 05:32:52;;;;;;;;;;;21.30;69.90;;;;;;10271334;28;94429;-64
2023/08/04 05:37:54;;;;;;;;;;;21.30;69.90;;;;;;10255805;28;93257;-64
2023/08/04 05:42:57;;;;;;;;;;;21.40;69.90;;;;;;10255238;28;96141;-65
2023/08/04 05:47:58;;;;;;;;;;;21.40;69.90;;;;;;10255577;28;93839;-64
2023/08/04 05:53:00;;;;;;;;;;;21.40;69.90;;;;;;10252929;28;94100;-64
2023/08/04 05:58:02;;;;;;;;;;;21.40;70.00;;;;;;10252400;28;93451;-64
2023/08/04 06:03:04;;;;;;;;;;;21.40;70.00;;;;;;10251979;28;95711;-64
2023/08/04 06:08:06;;;;;;;;;;;21.40;70.20;;;;;;10267325;28;93939;-64
2023/08/04 06:13:08;;;;;;;;;;;21.50;70.30;;;;;;10251804;28;94952;-64
2023/08/04 06:18:09;;;;;;;;;;;21.50;70.30;;;;;;10253235;28;93723;-64
2023/08/04 06:23:11;;;;;;;;;;;21.50;70.30;;;;;;10252193;28;94512;-65
2023/08/04 06:28:13;;;;;;;;;;;21.50;70.40;;;;;;10251584;28;94581;-64
2023/08/04 06:33:15;;;;;;;;;;;21.50;70.40;;;;;;10249552;28;96041;-66
2023/08/04 06:38:17;;;;;;;;;;;21.50;70.50;;;;;;10249118;28;93541;-63
2023/08/04 06:43:19;;;;;;;;;;;21.50;70.60;;;;;;10251532;28;94388;-65
2023/08/04 06:48:21;;;;;;;;;;;21.50;70.50;;;;;;10249808;28;93488;-64
2023/08/04 06:53:23;;;;;;;;;;;21.50;70.50;;;;;;10250740;28;94639;-64
2023/08/04 06:58:25;;;;;;;;;;;21.50;70.60;;;;;;10232648;28;93417;-65
2023/08/04 07:03:27;;;;;;;;;;;21.50;70.70;;;;;;10249274;28;93444;-64
2023/08/04 07:08:29;;;;;;;;;;;21.50;70.70;;;;;;10250816;28;92778;-64
2023/08/04 07:13:30;;;;;;;;;;;21.50;70.70;;;;;;10249935;28;94586;-65
2023/08/04 07:18:32;;;;;;;;;;;21.50;70.80;;;;;;10249037;28;94548;-65
2023/08/04 07:23:34;;;;;;;;;;;21.50;71.80;;;;;;10245466;28;96164;-65
2023/08/04 07:28:36;;;;;;;;;;;21.50;70.90;;;;;;10248639;28;93475;-64
2023/08/04 07:33:37;;;;;;;;;;;21.60;71.00;;;;;;10248287;28;93453;-64
2023/08/04 07:38:39;;;;;;;;;;;21.60;71.00;;;;;;10249097;28;93286;-64
2023/08/04 07:43:41;;;;;;;;;;;21.60;71.00;;;;;;10248905;28;94573;-64
2023/08/04 07:48:43;;;;;;;;;;;21.60;71.00;;;;;;10247648;28;94626;-64
2023/08/04 07:53:45;;;;;;;;;;;21.60;71.00;;;;;;10231537;28;93533;-64
2023/08/04 07:58:47;;;;;;;;;;;21.60;71.00;;;;;;10250817;28;92625;-65
2023/08/04 08:03:49;;;;;;;;;;;21.60;71.10;;;;;;10248287;28;94585;-65
2023/08/04 08:08:51;;;;;;;;;;;21.70;71.10;;;;;;10247077;28;94261;-65
2023/08/04 08:13:53;;;;;;;;;;;21.70;71.10;;;;;;10244195;28;95731;-64
2023/08/04 08:18:55;;;;;;;;;;;21.70;71.10;;;;;;10246674;28;94409;-65
2023/08/04 08:23:56;;;;;;;;;;;21.70;71.20;;;;;;10247299;28;94812;-64
2023/08/04 08:28:58;;;;;;;;;;;21.70;71.20;;;;;;10228414;28;93768;-65
2023/08/04 08:34:00;;;;;;;;;;;21.70;71.10;;;;;;10246850;28;94037;-63
2023/08/04 08:39:02;;;;;;;;;;;21.70;71.10;;;;;;10247168;28;93465;-64
2023/08/04 08:44:04;;;;;;;;;;;21.70;71.10;;;;;;10246831;28;94520;-64
2023/08/04 08:49:06;;;;;;;;;;;21.70;71.20;;;;;;10245872;28;93702;-64
2023/08/04 08:54:09;;;;;;;;;;;21.70;71.20;;;;;;10246080;28;93845;-64
2023/08/04 08:59:11;;;;;;;;;;;21.70;71.20;;;;;;10245589;28;93483;-64
2023/08/04 09:04:13;;;;;;;;;;;21.70;71.30;;;;;;10226523;28;95823;-64
2023/08/04 09:09:15;;;;;;;;;;;21.70;71.30;;;;;;10245169;28;93463;-64
2023/08/04 09:14:17;;;;;;;;;;;21.70;71.30;;;;;;10245104;28;93446;-64
2023/08/04 09:19:19;;;;;;;;;;;21.70;71.30;;;;;;10246055;28;93306;-64
2023/08/04 09:24:20;;;;;;;;;;;21.70;71.30;;;;;;10248006;28;94400;-64
2023/08/04 09:29:22;;;;;;;;;;;21.70;71.40;;;;;;10244134;28;94269;-63
2023/08/04 09:34:24;;;;;;;;;;;21.70;71.40;;;;;;10243549;28;93513;-64
2023/08/04 09:39:26;;;;;;;;;;;21.70;71.40;;;;;;10246588;28;93718;-64
2023/08/04 09:44:35;;;;;;;;;;;21.70;71.50;;;;;;10267209;28;93456;-64
2023/08/04 09:49:36;;;;;;;;;;;21.70;71.50;;;;;;10286355;28;95053;-64
2023/08/04 09:54:38;;;;;;;;;;;21.70;71.50;;;;;;10262945;28;95949;-65
2023/08/04 09:59:40;;;;;;;;;;;21.70;71.50;;;;;;10252140;28;93382;-65
2023/08/04 10:04:42;;;;;;;;;;;21.70;71.50;;;;;;10242824;28;94501;-65
2023/08/04 10:09:45;;;;;;;;;;;21.70;71.50;;;;;;10253502;28;94493;-66
2023/08/04 10:14:47;;;;;;;;;;;21.80;72.60;;;;;;10250571;28;93278;-65
2023/08/04 10:19:59;;;;;;;;;;;21.90;72.90;;;;;;10251123;28;93458;-64
2023/08/04 10:25:12;;;;;;;;;;;22.00;73.50;;;;;;10244118;28;94327;-64
2023/08/04 10:30:13;;;;;;;;;;;22.10;72.90;;;;;;10225833;28;93744;-63
2023/08/04 10:35:19;;;;;;;;;;;22.20;72.50;;;;;;10269785;28;94466;-63
2023/08/04 10:40:31;;;;;;;;;;;22.30;72.10;;;;;;10267803;28;94153;-63
2023/08/04 10:45:48;;;;;;;;;;;22.40;71.80;;;;;;10262191;28;99902;-63
2023/08/04 10:50:50;;;;;;;;;;;22.40;71.50;;;;;;10291240;28;93485;-64
2023/08/04 10:55:54;;;;;;;;;;;22.40;71.30;;;;;;10281133;28;93522;-63
2023/08/04 11:00:56;;;;;;;;;;;22.40;69.80;;;;;;10253365;28;94604;-63
2023/08/04 11:05:58;;;;;;;;;;;22.30;68.90;;;;;;10215601;28;93801;-63
2023/08/04 11:11:00;;;;;;;;;;;22.20;68.70;;;;;;10249925;28;94627;-64
2023/08/04 11:16:02;;;;;;;;;;;22.20;68.50;;;;;;10248453;28;93620;-65
2023/08/04 11:21:04;;;;;;;;;;;22.10;68.00;;;;;;10250396;28;93532;-64
2023/08/04 11:26:07;;;;;;;;;;;22.00;68.30;;;;;;10248211;28;93449;-64
2023/08/04 11:31:09;;;;;;;;;;;21.90;68.50;;;;;;10249414;28;93270;-63
2023/08/04 11:36:11;;;;;;;;;;;21.90;68.30;;;;;;10228802;28;96908;-64
2023/08/04 11:41:13;;;;;;;;;;;21.80;68.60;;;;;;10248010;28;93335;-63
2023/08/04 11:46:15;;;;;;;;;;;21.80;67.60;;;;;;10231295;28;94552;-64
2023/08/04 11:51:16;;;;;;;;;;;21.80;66.70;;;;;;10247321;28;94402;-64
2023/08/04 11:56:18;;;;;;;;;;;21.80;66.60;;;;;;10248701;28;94468;-64
2023/08/04 12:01:36;;;;;;;;;;;21.70;66.30;;;;;;10248892;28;93913;-62
2023/08/04 12:06:39;;;;;;;;;;;21.70;66.40;;;;;;10248479;28;94497;-62
2023/08/04 12:11:47;;;;;;;;;;;21.60;66.50;;;;;;10246919;28;92735;-61
2023/08/04 12:16:54;;;;;;;;;;;21.70;66.20;;;;;;10247815;28;93398;-64
2023/08/04 12:21:58;;;;;;;;;;;21.70;65.50;;;;;;10247321;28;93450;-64
2023/08/04 12:27:00;;;;;;;;;;;21.70;65.20;;;;;;10243994;28;95973;-64
2023/08/04 12:32:02;;;;;;;;;;;21.70;64.90;;;;;;10247770;28;93453;-63
2023/08/04 12:37:05;;;;;;;;;;;21.80;64.70;;;;;;10245361;28;94452;-64
2023/08/04 12:42:06;;;;;;;;;;;21.90;65.00;;;;;;10246446;28;94429;-63
2023/08/04 12:47:10;;;;;;;;;;;21.90;64.50;;;;;;10246040;28;94420;-64
2023/08/04 12:52:12;;;;;;;;;;;21.90;64.00;;;;;;10245609;28;93578;-64
2023/08/04 12:57:14;;;;;;;;;;;21.80;63.50;;;;;;10245524;28;93373;-63
2023/08/04 13:02:16;;;;;;;;;;;21.80;63.10;;;;;;10248257;28;93332;-63
2023/08/04 13:07:18;;;;;;;;;;;21.70;62.70;;;;;;10247142;28;94849;-63
2023/08/04 13:12:20;;;;;;;;;;;21.70;63.20;;;;;;10245151;28;94567;-62
2023/08/04 13:17:21;;;;;;;;;;;21.70;63.50;;;;;;10242992;28;95899;-63
2023/08/04 13:22:23;;;;;;;;;;;21.70;63.70;;;;;;10245330;28;92527;-63
2023/08/04 13:27:25;;;;;;;;;;;21.70;63.80;;;;;;10244685;28;94383;-63
2023/08/04 13:32:27;;;;;;;;;;;21.80;64.00;;;;;;10246332;28;93418;-63
2023/08/04 13:37:29;;;;;;;;;;;21.80;64.20;;;;;;10243933;28;93685;-62
2023/08/04 13:42:30;;;;;;;;;;;21.80;64.30;;;;;;10234226;28;94049;-63
2023/08/04 13:47:32;;;;;;;;;;;21.90;64.60;;;;;;10252218;28;93383;-63
2023/08/04 13:52:34;;;;;;;;;;;21.90;64.70;;;;;;10254134;28;93220;-63
2023/08/04 13:57:36;;;;;;;;;;;21.90;64.80;;;;;;10253023;28;94543;-62
2023/08/04 14:02:42;;;;;;;;;;;21.90;65.10;;;;;;10251999;28;93058;-62
2023/08/04 14:07:44;;;;;;;;;;;21.90;65.40;;;;;;10248921;28;96864;-63
2023/08/04 14:12:46;;;;;;;;;;;21.90;65.50;;;;;;10251671;28;93488;-62
2023/08/04 14:17:48;;;;;;;;;;;21.90;65.30;;;;;;10250179;28;92819;-61
2023/08/04 14:22:50;;;;;;;;;;;21.90;65.40;;;;;;10251112;28;93611;-61
2023/08/04 14:27:52;;;;;;;;;;;21.90;65.30;;;;;;10248401;28;94590;-61
2023/08/04 14:32:53;;;;;;;;;;;21.90;65.10;;;;;;10250268;28;93471;-61
2023/08/04 14:37:55;;;;;;;;;;;21.80;65.00;;;;;;10250372;28;94557;-62
2023/08/04 14:42:57;;;;;;;;;;;21.90;65.10;;;;;;10252041;28;93636;-63
2023/08/04 14:47:59;;;;;;;;;;;21.90;65.10;;;;;;10249107;28;92612;-62
2023/08/04 14:53:01;;;;;;;;;;;21.90;65.20;;;;;;10249549;28;93624;-62
2023/08/04 14:58:03;;;;;;;;;;;21.90;65.30;;;;;;10248583;28;96749;-62
2023/08/04 15:03:05;;;;;;;;;;;21.90;65.30;;;;;;10245601;28;94099;-62
2023/08/04 15:08:06;;;;;;;;;;;21.90;65.30;;;;;;10249330;28;93581;-63
2023/08/04 15:13:08;;;;;;;;;;;21.90;65.20;;;;;;10250103;28;93367;-63
2023/08/04 15:18:10;;;;;;;;;;;21.90;65.20;;;;;;10248993;28;93487;-62
2023/08/04 15:23:12;;;;;;;;;;;21.80;65.10;;;;;;10263884;28;93457;-63
2023/08/04 15:28:14;;;;;;;;;;;21.90;66.10;;;;;;10285037;28;94479;-63
2023/08/04 15:33:16;;;;;;;;;;;21.80;65.10;;;;;;10290892;28;93951;-63
2023/08/04 15:38:21;;;;;;;;;;;21.80;65.30;;;;;;10288181;28;93533;-62
2023/08/04 15:43:23;;;;;;;;;;;21.80;65.20;;;;;;10253999;28;93648;-63
2023/08/04 15:48:25;;;;;;;;;;;21.80;65.30;;;;;;10245964;28;95720;-64
2023/08/04 15:53:27;;;;;;;;;;;21.80;65.40;;;;;;10247927;28;93793;-62
2023/08/04 15:58:29;;;;;;;;;;;21.80;65.50;;;;;;10211788;28;93529;-64
2023/08/04 16:03:31;;;;;;;;;;;21.80;65.60;;;;;;10248780;28;95425;-64
2023/08/04 16:08:33;;;;;;;;;;;21.80;66.40;;;;;;10249008;28;94378;-66
2023/08/04 16:13:34;;;;;;;;;;;21.90;68.00;;;;;;10246500;28;93456;-66
2023/08/04 16:18:37;;;;;;;;;;;22.00;72.10;;;;;;10247668;28;93484;-63
2023/08/04 16:23:38;;;;;;;;;;;22.10;68.90;;;;;;10248994;28;92789;-66
2023/08/04 16:28:40;;;;;;;;;;;22.20;69.10;;;;;;10248140;28;94137;-66
2023/08/04 16:33:42;;;;;;;;;;;22.40;67.90;;;;;;10249379;28;93772;-65
2023/08/04 16:38:44;;;;;;;;;;;22.60;67.30;;;;;;10228067;28;96252;-65
2023/08/04 16:43:46;;;;;;;;;;;22.60;66.30;;;;;;10249363;28;93216;-65
2023/08/04 16:48:49;;;;;;;;;;;22.80;66.20;;;;;;10248144;28;93787;-64
2023/08/04 16:53:51;;;;;;;;;;;22.80;66.20;;;;;;10246893;28;93435;-66
2023/08/04 16:58:52;;;;;;;;;;;22.80;66.40;;;;;;10246895;28;93852;-66
2023/08/04 17:03:54;;;;;;;;;;;22.80;66.70;;;;;;10244735;28;94588;-66
2023/08/04 17:08:56;;;;;;;;;;;22.80;66.80;;;;;;10245760;28;93705;-65
2023/08/04 17:13:58;;;;;;;;;;;22.70;66.70;;;;;;10244553;28;93115;-65
2023/08/04 17:19:00;;;;;;;;;;;22.70;66.80;;;;;;10253780;28;94717;-67
2023/08/04 17:24:02;;;;;;;;;;;22.80;66.80;;;;;;10252992;28;93362;-66
2023/08/04 17:29:04;;;;;;;;;;;22.80;66.80;;;;;;10250549;28;95855;-65
2023/08/04 17:34:06;;;;;;;;;;;22.80;66.70;;;;;;10252342;28;94437;-66
2023/08/04 17:39:08;;;;;;;;;;;22.70;66.60;;;;;;10252595;28;93494;-65
2023/08/04 17:44:10;;;;;;;;;;;22.80;66.70;;;;;;10267589;28;93499;-66
2023/08/04 17:49:12;;;;;;;;;;;22.80;66.70;;;;;;10251436;28;93410;-65
2023/08/04 17:54:14;;;;;;;;;;;22.80;66.60;;;;;;10251085;28;93584;-65
2023/08/04 17:59:16;;;;;;;;;;;22.80;66.60;;;;;;10252035;28;94408;-65
2023/08/04 18:04:18;;;;;;;;;;;22.80;66.60;;;;;;10252896;28;94385;-66
2023/08/04 18:09:19;;;;;;;;;;;22.90;66.50;;;;;;10251690;28;94420;-67
2023/08/04 18:14:21;;;;;;;;;;;22.90;66.50;;;;;;10250612;28;93578;-66
2023/08/04 18:19:23;;;;;;;;;;;23.00;66.30;;;;;;10250258;28;96578;-67
2023/08/04 18:24:25;;;;;;;;;;;23.00;66.10;;;;;;10251952;28;94436;-66
2023/08/04 18:29:27;;;;;;;;;;;23.00;66.10;;;;;;10251326;28;93297;-66
2023/08/04 18:34:28;;;;;;;;;;;22.90;66.10;;;;;;10251679;28;94122;-66
2023/08/04 18:39:30;;;;;;;;;;;22.90;66.20;;;;;;10233355;28;94543;-66
2023/08/04 18:44:32;;;;;;;;;;;22.90;66.20;;;;;;10250587;28;93431;-65
2023/08/04 18:49:34;;;;;;;;;;;22.90;66.20;;;;;;10252224;28;94480;-65
2023/08/04 18:54:35;;;;;;;;;;;22.80;64.10;;;;;;10251545;28;93812;-65
2023/08/04 18:59:37;;;;;;;;;;;22.70;63.40;;;;;;10249507;28;92744;-65
2023/08/04 19:04:41;;;;;;;;;;;22.60;62.50;;;;;;10250360;28;93491;-65
2023/08/04 19:09:43;;;;;;;;;;;22.50;62.40;;;;;;10246791;28;95895;-65
2023/08/04 19:14:45;;;;;;;;;;;22.40;62.00;;;;;;10249354;28;93537;-65
2023/08/04 19:19:47;;;;;;;;;;;22.40;62.00;;;;;;10249276;28;94334;-65
2023/08/04 19:24:50;;;;;;;;;;;22.30;62.20;;;;;;10232877;28;94031;-66
2023/08/04 19:29:52;;;;;;;;;;;22.30;62.30;;;;;;10249082;28;93396;-66
2023/08/04 19:34:53;;;;;;;;;;;22.20;63.20;;;;;;10248248;28;93498;-66
2023/08/04 19:39:55;;;;;;;;;;;22.20;63.10;;;;;;10229458;28;93138;-66
2023/08/04 19:44:57;;;;;;;;;;;22.20;62.80;;;;;;10248864;28;92782;-65
2023/08/04 19:49:59;;;;;;;;;;;22.20;62.60;;;;;;10230992;28;94440;-64
2023/08/04 19:55:00;;;;;;;;;;;22.20;62.50;;;;;;10248434;28;94206;-64
2023/08/04 20:00:04;;;;;;;;;;;22.10;62.30;;;;;;10247885;28;95586;-64
2023/08/04 20:05:06;;;;;;;;;;;22.10;62.20;;;;;;10248387;28;93499;-64
2023/08/04 20:10:08;;;;;;;;;;;22.00;62.30;;;;;;10246814;28;93507;-63
2023/08/04 20:15:10;;;;;;;;;;;22.10;63.00;;;;;;10247698;28;92605;-66
2023/08/04 20:20:12;;;;;;;;;;;22.10;63.20;;;;;;10247240;28;93406;-65
2023/08/04 20:25:13;;;;;;;;;;;22.20;63.40;;;;;;10245548;28;94565;-65
2023/08/04 20:30:15;;;;;;;;;;;22.20;63.60;;;;;;10246803;28;93290;-65
2023/08/04 20:35:17;;;;;;;;;;;22.20;63.60;;;;;;10247969;28;92750;-65
2023/08/04 20:40:18;;;;;;;;;;;22.20;63.70;;;;;;10246286;28;94504;-65
2023/08/04 20:45:20;;;;;;;;;;;22.30;63.80;;;;;;10247403;28;93810;-65
2023/08/04 20:50:22;;;;;;;;;;;22.30;63.90;;;;;;10242276;28;95870;-66
2023/08/04 20:55:24;;;;;;;;;;;22.30;64.00;;;;;;10246089;28;94587;-65
2023/08/04 21:00:25;;;;;;;;;;;22.30;64.10;;;;;;10244265;28;94764;-65
2023/08/04 21:05:27;;;;;;;;;;;22.30;64.10;;;;;;10246002;28;93502;-65
2023/08/04 21:10:30;;;;;;;;;;;22.30;64.20;;;;;;10245764;28;94556;-66
2023/08/04 21:15:33;;;;;;;;;;;22.30;64.20;;;;;;10245062;28;94466;-66
2023/08/04 21:20:35;;;;;;;;;;;22.30;64.30;;;;;;10227609;28;94513;-65
2023/08/04 21:25:37;;;;;;;;;;;22.30;64.30;;;;;;10246354;28;92716;-65
2023/08/04 21:30:39;;;;;;;;;;;22.30;64.40;;;;;;10245558;28;92472;-65
2023/08/04 21:35:40;;;;;;;;;;;22.30;64.40;;;;;;10245276;28;94707;-66
2023/08/04 21:40:42;;;;;;;;;;;22.30;64.40;;;;;;10243037;28;96458;-66
2023/08/04 21:45:44;;;;;;;;;;;22.30;64.50;;;;;;10228016;28;94417;-66
2023/08/04 21:50:46;;;;;;;;;;;22.30;64.50;;;;;;10244944;28;94037;-66
2023/08/04 21:55:51;;;;;;;;;;;22.30;64.70;;;;;;10245700;28;94295;-64
2023/08/04 22:00:53;;;;;;;;;;;22.30;64.70;;;;;;10247766;28;93983;-66
2023/08/04 22:05:55;;;;;;;;;;;22.30;64.80;;;;;;10252013;28;93843;-65
2023/08/04 22:11:07;;;;;;;;;;;22.40;64.80;;;;;;10251900;28;92977;-65
2023/08/04 22:16:08;;;;;;;;;;;22.40;64.80;;;;;;10244761;28;92745;-65
2023/08/04 22:21:10;;;;;;;;;;;22.30;64.90;;;;;;10250918;28;93259;-65
2023/08/04 22:26:12;;;;;;;;;;;22.30;64.90;;;;;;10250972;28;93504;-66
2023/08/04 22:31:14;;;;;;;;;;;22.30;64.90;;;;;;10231014;28;95812;-66
2023/08/04 22:36:16;;;;;;;;;;;22.30;65.00;;;;;;10250782;28;94182;-65
2023/08/04 22:41:18;;;;;;;;;;;22.40;65.00;;;;;;10250354;28;92460;-66
2023/08/04 22:46:19;;;;;;;;;;;22.40;65.00;;;;;;10250354;28;94489;-65
2023/08/04 22:51:27;;;;;;;;;;;22.30;65.00;;;;;;10250740;28;93553;-65
2023/08/04 22:56:28;;;;;;;;;;;22.40;65.10;;;;;;10250348;28;93493;-65
2023/08/04 23:01:30;;;;;;;;;;;22.30;65.00;;;;;;10251762;28;94111;-65
2023/08/04 23:06:32;;;;;;;;;;;22.30;65.00;;;;;;10249876;28;92747;-66
2023/08/04 23:11:34;;;;;;;;;;;22.30;65.00;;;;;;10248652;28;93453;-65
2023/08/04 23:16:35;;;;;;;;;;;22.30;65.00;;;;;;10245585;28;93501;-65
2023/08/04 23:21:37;;;;;;;;;;;22.30;65.00;;;;;;10239021;28;96455;-66
2023/08/04 23:26:39;;;;;;;;;;;22.30;65.00;;;;;;10242166;28;93471;-65
2023/08/04 23:31:40;;;;;;;;;;;22.20;65.00;;;;;;10250116;28;94591;-66
2023/08/04 23:36:42;;;;;;;;;;;22.20;65.20;;;;;;10249487;28;93772;-66
2023/08/04 23:41:46;;;;;;;;;;;22.20;65.00;;;;;;10249926;28;94501;-66
2023/08/04 23:46:48;;;;;;;;;;;22.20;65.00;;;;;;10242168;28;95990;-66
2023/08/04 23:51:50;;;;;;;;;;;22.20;64.90;;;;;;10248708;28;94507;-66
2023/08/04 23:56:52;;;;;;;;;;;22.20;65.00;;;;;;10249942;28;93865;-65
